Time;durP1;ratioP1;P1;durP2;ratioP2;P2;SDS_P1;SDS_P2;PMS_P1;PMS_P2;Temp;Humidity;BMP_temperature;BMP_pressure;BME280_temperature;BME280_humidity;BME280_pressure;Samples;Min_cycle;Max_cycle;Signal;HPM_P1;HPM_P2
2023/12/17 00:00:41;;;;;;;27.37;14.40;;;;;;;;;;773864;181;1022696;-62
2023/12/17 00:03:07;;;;;;;30.23;16.70;;;;;;;;;;779115;179;933956;-69
2023/12/17 00:05:33;;;;;;;31.13;16.27;;;;;;;;;;774603;181;910446;-67
2023/12/17 00:07:58;;;;;;;27.00;14.63;;;;;;;;;;772664;180;917903;-68
2023/12/17 00:10:24;;;;;;;21.12;13.18;;;;;;;;;;769948;181;920335;-68
2023/12/17 00:12:50;;;;;;;27.97;15.10;;;;;;;;;;770724;180;917970;-68
2023/12/17 00:15:16;;;;;;;29.70;14.23;;;;;;;;;;773328;179;919038;-69
2023/12/17 00:17:42;;;;;;;22.90;13.57;;;;;;;;;;774768;180;920468;-68
2023/12/17 00:20:08;;;;;;;23.17;13.13;;;;;;;;;;780442;177;820380;-63
2023/12/17 00:22:34;;;;;;;25.33;13.95;;;;;;;;;;774786;180;914973;-63
2023/12/17 00:25:00;;;;;;;22.70;13.27;;;;;;;;;;770349;180;857038;-62
2023/12/17 00:27:26;;;;;;;25.40;12.90;;;;;;;;;;772877;180;918759;-63
2023/12/17 00:29:52;;;;;;;24.80;13.20;;;;;;;;;;774062;180;816608;-63
2023/12/17 00:32:17;;;;;;;19.90;12.27;;;;;;;;;;770234;180;916151;-68
2023/12/17 00:34:43;;;;;;;18.60;10.97;;;;;;;;;;773839;177;919705;-69
2023/12/17 00:37:09;;;;;;;18.37;11.10;;;;;;;;;;755373;180;919102;-63
2023/12/17 00:39:35;;;;;;;26.60;14.70;;;;;;;;;;773597;180;922252;-68
2023/12/17 00:42:01;;;;;;;29.10;13.03;;;;;;;;;;771767;180;893462;-69
2023/12/17 00:44:27;;;;;;;20.30;12.40;;;;;;;;;;778463;178;916535;-62
2023/12/17 00:46:52;;;;;;;26.53;13.40;;;;;;;;;;764505;181;918932;-63
2023/12/17 00:49:18;;;;;;;26.43;14.10;;;;;;;;;;763104;181;822761;-62
2023/12/17 00:51:44;;;;;;;20.43;12.93;;;;;;;;;;774641;180;911548;-69
2023/12/17 00:54:10;;;;;;;19.23;12.10;;;;;;;;;;772913;180;921483;-69
2023/12/17 00:56:36;;;;;;;22.15;11.40;;;;;;;;;;768603;180;900243;-70
2023/12/17 00:59:02;;;;;;;21.87;12.80;;;;;;;;;;777728;181;800642;-69
2023/12/17 01:01:28;;;;;;;22.43;11.63;;;;;;;;;;766131;180;1018670;-69
2023/12/17 01:03:53;;;;;;;28.60;13.50;;;;;;;;;;769683;181;881348;-63
2023/12/17 01:06:19;;;;;;;23.43;12.63;;;;;;;;;;770406;181;914910;-68
2023/12/17 01:08:45;;;;;;;21.62;12.85;;;;;;;;;;770992;180;818494;-69
2023/12/17 01:11:11;;;;;;;28.13;12.87;;;;;;;;;;770207;180;905946;-70
2023/12/17 01:13:37;;;;;;;20.58;11.12;;;;;;;;;;773486;179;838995;-68
2023/12/17 01:16:04;;;;;;;17.83;10.90;;;;;;;;;;777788;179;921464;-62
2023/12/17 01:18:29;;;;;;;20.33;12.13;;;;;;;;;;773249;180;916307;-70
2023/12/17 01:20:54;;;;;;;22.87;11.67;;;;;;;;;;775080;178;813685;-64
2023/12/17 01:23:20;;;;;;;22.77;12.63;;;;;;;;;;775518;178;811758;-69
2023/12/17 01:25:46;;;;;;;23.73;13.00;;;;;;;;;;776210;179;821320;-68
2023/12/17 01:28:12;;;;;;;24.42;14.40;;;;;;;;;;768183;180;917834;-64
2023/12/17 01:30:38;;;;;;;19.30;10.97;;;;;;;;;;764850;181;1029570;-63
2023/12/17 01:33:04;;;;;;;18.63;11.87;;;;;;;;;;755908;181;869211;-70
2023/12/17 01:35:30;;;;;;;21.48;12.85;;;;;;;;;;767613;180;1047981;-68
2023/12/17 01:37:55;;;;;;;20.70;11.50;;;;;;;;;;769984;181;911993;-68
2023/12/17 01:40:21;;;;;;;19.75;10.85;;;;;;;;;;779407;177;926357;-71
2023/12/17 01:42:47;;;;;;;20.37;11.40;;;;;;;;;;772945;177;919093;-64
2023/12/17 01:45:13;;;;;;;20.93;12.17;;;;;;;;;;768415;180;919767;-63
2023/12/17 01:47:39;;;;;;;17.50;10.57;;;;;;;;;;776625;177;959085;-69
2023/12/17 01:50:06;;;;;;;30.17;14.43;;;;;;;;;;764946;181;918169;-63
2023/12/17 01:52:31;;;;;;;25.80;11.10;;;;;;;;;;772599;179;918033;-64
2023/12/17 01:54:57;;;;;;;18.33;10.85;;;;;;;;;;774091;180;815955;-71
2023/12/17 01:57:23;;;;;;;19.27;10.47;;;;;;;;;;771930;178;922347;-63
2023/12/17 01:59:49;;;;;;;15.37;9.13;;;;;;;;;;772508;177;918320;-63
2023/12/17 02:02:15;;;;;;;17.90;10.83;;;;;;;;;;765033;180;919320;-62
2023/12/17 02:04:40;;;;;;;24.47;10.37;;;;;;;;;;762555;182;918491;-63
2023/12/17 02:07:06;;;;;;;23.20;11.10;;;;;;;;;;775094;178;913072;-62
2023/12/17 02:09:32;;;;;;;15.43;9.40;;;;;;;;;;775396;177;922762;-63
2023/12/17 02:11:58;;;;;;;16.80;9.23;;;;;;;;;;778141;180;913943;-68
2023/12/17 02:14:24;;;;;;;25.23;10.37;;;;;;;;;;766864;180;915453;-69
2023/12/17 02:16:50;;;;;;;19.57;9.23;;;;;;;;;;773945;178;810488;-62
2023/12/17 02:19:15;;;;;;;25.67;11.70;;;;;;;;;;779066;180;928764;-63
2023/12/17 02:21:41;;;;;;;15.63;9.60;;;;;;;;;;763613;179;919953;-63
2023/12/17 02:24:07;;;;;;;28.12;11.25;;;;;;;;;;762464;181;941448;-62
2023/12/17 02:26:33;;;;;;;22.37;10.47;;;;;;;;;;775077;181;921898;-69
2023/12/17 02:28:59;;;;;;;16.63;10.47;;;;;;;;;;775484;180;939558;-63
2023/12/17 02:31:25;;;;;;;20.07;10.67;;;;;;;;;;769934;180;916774;-63
2023/12/17 02:33:50;;;;;;;19.42;11.20;;;;;;;;;;761695;183;918376;-63
2023/12/17 02:36:16;;;;;;;17.93;12.40;;;;;;;;;;766080;181;919029;-68
2023/12/17 02:38:42;;;;;;;18.33;9.73;;;;;;;;;;774800;179;1013064;-67
2023/12/17 02:41:08;;;;;;;22.20;10.50;;;;;;;;;;775218;180;920523;-62
2023/12/17 02:43:34;;;;;;;17.40;9.90;;;;;;;;;;781108;180;919723;-68
2023/12/17 02:46:00;;;;;;;15.87;10.10;;;;;;;;;;771982;177;919619;-68
2023/12/17 02:48:25;;;;;;;19.93;10.27;;;;;;;;;;773281;177;949216;-69
2023/12/17 02:50:51;;;;;;;17.37;9.53;;;;;;;;;;779156;180;886897;-63
2023/12/17 02:53:17;;;;;;;24.80;10.03;;;;;;;;;;769975;178;913259;-63
2023/12/17 02:55:43;;;;;;;15.10;8.00;;;;;;;;;;765251;181;816289;-63
2023/12/17 02:58:09;;;;;;;17.23;9.27;;;;;;;;;;768204;180;912702;-68
2023/12/17 03:00:36;;;;;;;14.43;8.57;;;;;;;;;;771978;181;911268;-68
2023/12/17 03:03:01;;;;;;;21.30;9.47;;;;;;;;;;775365;180;916363;-62
2023/12/17 03:05:26;;;;;;;20.97;9.97;;;;;;;;;;771100;179;910546;-67
2023/12/17 03:07:52;;;;;;;14.10;8.50;;;;;;;;;;774753;180;921285;-68
2023/12/17 03:10:18;;;;;;;24.63;11.43;;;;;;;;;;767941;180;912823;-68
2023/12/17 03:12:44;;;;;;;17.53;9.37;;;;;;;;;;770871;180;824793;-63
2023/12/17 03:15:10;;;;;;;13.53;8.60;;;;;;;;;;774981;181;898306;-68
2023/12/17 03:17:36;;;;;;;16.90;9.30;;;;;;;;;;771890;180;824590;-68
2023/12/17 03:20:04;;;;;;;19.23;9.23;;;;;;;;;;769896;178;912205;-63
2023/12/17 03:22:27;;;;;;;12.47;7.43;;;;;;;;;;776933;179;910341;-63
2023/12/17 03:24:53;;;;;;;20.47;10.47;;;;;;;;;;770788;179;916128;-69
2023/12/17 03:27:19;;;;;;;16.67;9.73;;;;;;;;;;772552;180;918141;-68
2023/12/17 03:29:45;;;;;;;28.90;10.00;;;;;;;;;;768223;180;942305;-68
2023/12/17 03:32:11;;;;;;;18.90;11.30;;;;;;;;;;774700;177;921425;-68
2023/12/17 03:34:37;;;;;;;22.75;10.35;;;;;;;;;;768882;180;919470;-69
2023/12/17 03:37:02;;;;;;;16.00;9.70;;;;;;;;;;769776;180;922260;-69
2023/12/17 03:39:28;;;;;;;19.80;9.90;;;;;;;;;;779636;180;917834;-67
2023/12/17 03:41:54;;;;;;;16.40;9.70;;;;;;;;;;770349;181;917734;-63
2023/12/17 03:44:21;;;;;;;17.90;8.03;;;;;;;;;;770053;178;925169;-62
2023/12/17 03:46:47;;;;;;;12.67;8.13;;;;;;;;;;778937;178;925294;-68
2023/12/17 03:49:12;;;;;;;18.50;9.50;;;;;;;;;;770678;179;918881;-69
2023/12/17 03:51:38;;;;;;;23.23;10.30;;;;;;;;;;773424;179;919111;-62
2023/12/17 03:54:04;;;;;;;16.27;9.70;;;;;;;;;;773256;179;941732;-63
2023/12/17 03:56:30;;;;;;;21.03;10.70;;;;;;;;;;772961;180;919136;-62
2023/12/17 03:58:56;;;;;;;18.67;9.97;;;;;;;;;;763890;181;921285;-68
2023/12/17 04:01:23;;;;;;;16.77;9.50;;;;;;;;;;772638;177;918515;-68
2023/12/17 04:03:48;;;;;;;15.00;7.80;;;;;;;;;;780240;177;888283;-63
2023/12/17 04:06:13;;;;;;;13.03;8.70;;;;;;;;;;772849;180;918899;-62
2023/12/17 04:08:39;;;;;;;13.87;8.57;;;;;;;;;;775439;179;919125;-68
2023/12/17 04:11:05;;;;;;;13.73;8.40;;;;;;;;;;776100;180;919853;-67
2023/12/17 04:13:31;;;;;;;15.40;8.33;;;;;;;;;;772752;179;1019667;-62
2023/12/17 04:15:57;;;;;;;15.53;9.47;;;;;;;;;;758821;183;896715;-62
2023/12/17 04:18:23;;;;;;;13.20;8.27;;;;;;;;;;775025;181;915491;-62
2023/12/17 04:20:49;;;;;;;13.30;9.00;;;;;;;;;;771580;180;919556;-62
2023/12/17 04:23:15;;;;;;;16.83;8.87;;;;;;;;;;769969;180;918936;-69
2023/12/17 04:25:40;;;;;;;12.93;8.13;;;;;;;;;;768211;180;934103;-68
2023/12/17 04:28:06;;;;;;;18.52;8.80;;;;;;;;;;763475;184;917302;-67
2023/12/17 04:30:32;;;;;;;16.47;9.53;;;;;;;;;;769784;181;921032;-68
2023/12/17 04:32:58;;;;;;;17.03;8.10;;;;;;;;;;770443;180;1018623;-61
2023/12/17 04:35:24;;;;;;;15.93;8.80;;;;;;;;;;778272;180;919109;-68
2023/12/17 04:37:49;;;;;;;16.70;8.53;;;;;;;;;;770336;180;920446;-62
2023/12/17 04:40:15;;;;;;;13.27;8.73;;;;;;;;;;770034;179;919127;-62
2023/12/17 04:42:41;;;;;;;13.20;8.40;;;;;;;;;;774933;179;919161;-62
2023/12/17 04:45:07;;;;;;;14.43;8.80;;;;;;;;;;771856;179;818486;-62
2023/12/17 04:47:33;;;;;;;19.33;9.35;;;;;;;;;;774806;179;853815;-68
2023/12/17 04:49:59;;;;;;;16.23;8.27;;;;;;;;;;773651;178;1021457;-68
2023/12/17 04:52:25;;;;;;;18.30;8.83;;;;;;;;;;769621;181;814763;-69
2023/12/17 04:54:51;;;;;;;16.00;7.73;;;;;;;;;;766461;180;815904;-62
2023/12/17 04:57:16;;;;;;;16.53;8.90;;;;;;;;;;774039;180;916501;-68
2023/12/17 04:59:42;;;;;;;17.03;8.40;;;;;;;;;;780154;180;816995;-62
2023/12/17 05:02:08;;;;;;;14.07;7.77;;;;;;;;;;773186;177;921501;-68
2023/12/17 05:04:34;;;;;;;14.97;8.63;;;;;;;;;;775180;179;919832;-63
2023/12/17 05:07:00;;;;;;;15.43;7.90;;;;;;;;;;779361;178;817723;-67
2023/12/17 05:09:26;;;;;;;11.93;8.70;;;;;;;;;;775887;179;920762;-67
2023/12/17 05:11:52;;;;;;;15.37;8.47;;;;;;;;;;766669;179;920966;-68
2023/12/17 05:14:17;;;;;;;16.87;8.38;;;;;;;;;;779629;177;814620;-68
2023/12/17 05:16:43;;;;;;;13.23;9.10;;;;;;;;;;774353;180;917737;-67
2023/12/17 05:19:09;;;;;;;21.20;9.03;;;;;;;;;;772942;180;822457;-67
2023/12/17 05:21:35;;;;;;;18.60;10.70;;;;;;;;;;773747;180;919546;-63
2023/12/17 05:24:02;;;;;;;16.47;9.10;;;;;;;;;;780673;180;816005;-63
2023/12/17 05:26:27;;;;;;;12.13;8.20;;;;;;;;;;770536;180;1019282;-62
2023/12/17 05:28:52;;;;;;;13.10;8.17;;;;;;;;;;760647;181;816527;-68
2023/12/17 05:31:18;;;;;;;18.70;9.70;;;;;;;;;;774941;180;916537;-68
2023/12/17 05:33:46;;;;;;;12.60;7.90;;;;;;;;;;772604;180;918181;-68
2023/12/17 05:36:10;;;;;;;13.82;7.43;;;;;;;;;;770832;180;915841;-62
2023/12/17 05:38:36;;;;;;;13.50;8.37;;;;;;;;;;775686;180;915425;-62
2023/12/17 05:41:02;;;;;;;21.17;8.30;;;;;;;;;;767624;178;919640;-68
2023/12/17 05:43:27;;;;;;;15.90;8.17;;;;;;;;;;765424;181;918886;-67
2023/12/17 05:45:53;;;;;;;15.63;8.50;;;;;;;;;;769671;179;920269;-67
2023/12/17 05:48:19;;;;;;;15.50;8.80;;;;;;;;;;769488;180;918179;-62
2023/12/17 05:50:47;;;;;;;16.87;8.10;;;;;;;;;;762199;180;917409;-69
2023/12/17 05:53:11;;;;;;;21.23;9.33;;;;;;;;;;770665;177;914170;-67
2023/12/17 05:55:37;;;;;;;15.30;8.10;;;;;;;;;;772866;180;816038;-68
2023/12/17 05:58:02;;;;;;;11.67;6.57;;;;;;;;;;767961;181;826449;-67
2023/12/17 06:00:28;;;;;;;18.03;7.43;;;;;;;;;;772017;177;918176;-68
2023/12/17 06:02:54;;;;;;;14.97;8.47;;;;;;;;;;778233;180;626775;-68
2023/12/17 06:05:20;;;;;;;14.70;8.00;;;;;;;;;;767214;180;917354;-68
2023/12/17 06:07:46;;;;;;;11.87;7.97;;;;;;;;;;766105;180;918980;-68
2023/12/17 06:10:12;;;;;;;17.63;7.93;;;;;;;;;;780221;180;919943;-68
2023/12/17 06:12:37;;;;;;;18.40;6.70;;;;;;;;;;771220;180;938883;-68
2023/12/17 06:15:04;;;;;;;12.75;8.10;;;;;;;;;;773800;180;918997;-67
2023/12/17 06:17:30;;;;;;;16.67;8.10;;;;;;;;;;774173;177;919349;-67
2023/12/17 06:19:56;;;;;;;12.70;7.57;;;;;;;;;;779073;180;918926;-62
2023/12/17 06:22:23;;;;;;;12.70;8.17;;;;;;;;;;775287;178;919057;-63
2023/12/17 06:24:47;;;;;;;20.00;9.30;;;;;;;;;;771412;177;919109;-68
2023/12/17 06:27:13;;;;;;;15.23;7.63;;;;;;;;;;778113;177;871977;-69
2023/12/17 06:29:39;;;;;;;15.63;8.30;;;;;;;;;;774460;180;917990;-68
2023/12/17 06:32:07;;;;;;;17.08;8.02;;;;;;;;;;775691;177;816396;-68
2023/12/17 06:34:31;;;;;;;12.53;7.67;;;;;;;;;;776003;177;913993;-63
2023/12/17 06:36:58;;;;;;;15.73;8.93;;;;;;;;;;773424;177;920524;-63
2023/12/17 06:39:23;;;;;;;15.50;9.70;;;;;;;;;;774919;178;817190;-63
2023/12/17 06:41:49;;;;;;;22.30;12.03;;;;;;;;;;773033;180;816481;-63
2023/12/17 06:44:15;;;;;;;18.03;9.63;;;;;;;;;;777550;180;919174;-69
2023/12/17 06:46:41;;;;;;;15.83;9.13;;;;;;;;;;777400;179;814124;-62
2023/12/17 06:49:06;;;;;;;20.95;10.38;;;;;;;;;;769628;180;921074;-64
2023/12/17 06:51:32;;;;;;;18.93;10.47;;;;;;;;;;775964;180;872555;-68
2023/12/17 06:53:58;;;;;;;18.33;9.17;;;;;;;;;;769627;180;919863;-68
2023/12/17 06:56:24;;;;;;;17.97;9.27;;;;;;;;;;773704;178;854682;-68
2023/12/17 06:58:51;;;;;;;18.60;9.10;;;;;;;;;;773565;178;918844;-68
2023/12/17 07:01:16;;;;;;;22.10;9.43;;;;;;;;;;771050;177;913045;-69
2023/12/17 07:03:42;;;;;;;16.67;9.50;;;;;;;;;;769296;179;819594;-69
2023/12/17 07:06:11;;;;;;;16.60;8.10;;;;;;;;;;773967;181;838595;-63
2023/12/17 07:08:34;;;;;;;19.50;8.93;;;;;;;;;;771870;180;814198;-68
2023/12/17 07:10:59;;;;;;;15.60;9.88;;;;;;;;;;772354;180;819534;-67
2023/12/17 07:13:25;;;;;;;16.73;9.17;;;;;;;;;;772774;180;916908;-63
2023/12/17 07:15:51;;;;;;;14.60;8.13;;;;;;;;;;775428;180;917251;-62
2023/12/17 07:18:17;;;;;;;17.17;9.00;;;;;;;;;;763978;181;920235;-68
2023/12/17 07:20:43;;;;;;;13.63;9.00;;;;;;;;;;773761;180;914988;-69
2023/12/17 07:23:09;;;;;;;19.37;10.53;;;;;;;;;;765126;179;915663;-67
2023/12/17 07:25:34;;;;;;;15.50;9.10;;;;;;;;;;769698;180;913790;-65
2023/12/17 07:28:00;;;;;;;15.30;11.40;;;;;;;;;;768951;177;921827;-64
2023/12/17 07:30:26;;;;;;;16.17;8.30;;;;;;;;;;779598;179;867915;-68
2023/12/17 07:32:52;;;;;;;15.20;8.65;;;;;;;;;;761753;181;817726;-62
2023/12/17 07:35:18;;;;;;;19.80;10.03;;;;;;;;;;771693;180;919191;-67
2023/12/17 07:37:44;;;;;;;14.83;8.90;;;;;;;;;;775396;180;819805;-63
2023/12/17 07:40:10;;;;;;;14.90;9.53;;;;;;;;;;778600;180;815401;-62
2023/12/17 07:42:36;;;;;;;13.20;9.10;;;;;;;;;;771782;180;919331;-68
2023/12/17 07:45:01;;;;;;;11.82;7.62;;;;;;;;;;774524;177;896649;-62
2023/12/17 07:47:30;;;;;;;18.08;9.63;;;;;;;;;;777786;178;887668;-64
2023/12/17 07:49:53;;;;;;;17.50;9.10;;;;;;;;;;771578;180;829300;-63
2023/12/17 07:52:19;;;;;;;20.50;9.30;;;;;;;;;;772800;180;915626;-62
2023/12/17 07:54:45;;;;;;;13.00;7.93;;;;;;;;;;778881;181;817312;-62
2023/12/17 07:57:11;;;;;;;16.90;9.53;;;;;;;;;;776014;179;633274;-62
2023/12/17 07:59:37;;;;;;;13.53;8.37;;;;;;;;;;777436;178;623134;-68
2023/12/17 08:02:03;;;;;;;16.30;7.50;;;;;;;;;;772107;180;627591;-63
2023/12/17 08:04:28;;;;;;;14.73;9.40;;;;;;;;;;770279;181;624336;-63
2023/12/17 08:06:54;;;;;;;14.57;8.83;;;;;;;;;;773064;179;629077;-63
2023/12/17 08:09:20;;;;;;;17.80;8.30;;;;;;;;;;777711;179;629946;-68
2023/12/17 08:11:46;;;;;;;14.43;9.10;;;;;;;;;;782340;180;622478;-69
2023/12/17 08:14:12;;;;;;;14.90;9.00;;;;;;;;;;775262;180;818330;-63
2023/12/17 08:16:37;;;;;;;13.57;7.17;;;;;;;;;;776446;178;715104;-69
2023/12/17 08:19:03;;;;;;;16.90;9.37;;;;;;;;;;779290;178;618659;-68
2023/12/17 08:21:29;;;;;;;12.90;8.07;;;;;;;;;;773403;181;918971;-62
2023/12/17 08:23:56;;;;;;;13.53;8.90;;;;;;;;;;764631;180;918856;-63
2023/12/17 08:26:21;;;;;;;21.37;9.03;;;;;;;;;;778765;180;913734;-62
2023/12/17 08:28:47;;;;;;;12.23;8.03;;;;;;;;;;771179;181;1015579;-62
2023/12/17 08:31:13;;;;;;;14.67;8.03;;;;;;;;;;770833;180;919600;-68
2023/12/17 08:33:38;;;;;;;14.20;8.00;;;;;;;;;;769691;180;919610;-63
2023/12/17 08:36:05;;;;;;;24.93;9.67;;;;;;;;;;778817;178;934365;-62
2023/12/17 08:38:31;;;;;;;17.90;8.93;;;;;;;;;;775211;180;914728;-68
2023/12/17 08:40:56;;;;;;;12.80;7.70;;;;;;;;;;776154;179;913104;-69
2023/12/17 08:43:22;;;;;;;15.80;8.50;;;;;;;;;;777164;180;922241;-68
2023/12/17 08:45:48;;;;;;;13.20;7.47;;;;;;;;;;767909;180;852349;-63
2023/12/17 08:48:14;;;;;;;15.85;8.63;;;;;;;;;;773236;180;864446;-68
2023/12/17 08:50:40;;;;;;;15.67;8.30;;;;;;;;;;780097;177;820638;-62
2023/12/17 08:53:05;;;;;;;14.67;7.93;;;;;;;;;;775091;177;845565;-62
2023/12/17 08:55:31;;;;;;;19.30;8.43;;;;;;;;;;774040;177;918629;-62
2023/12/17 08:57:57;;;;;;;16.43;7.00;;;;;;;;;;771597;180;902845;-68
2023/12/17 09:00:23;;;;;;;16.17;8.73;;;;;;;;;;772670;180;910577;-68
2023/12/17 09:02:49;;;;;;;13.50;7.23;;;;;;;;;;771376;177;917180;-62
2023/12/17 09:05:15;;;;;;;14.60;7.43;;;;;;;;;;770934;180;916441;-68
2023/12/17 09:07:41;;;;;;;17.10;8.57;;;;;;;;;;778494;178;818134;-68
2023/12/17 09:10:07;;;;;;;20.73;7.47;;;;;;;;;;772554;178;916371;-63
2023/12/17 09:12:33;;;;;;;15.23;8.83;;;;;;;;;;770948;180;919415;-62
2023/12/17 09:14:58;;;;;;;20.70;9.57;;;;;;;;;;773275;180;1018766;-63
2023/12/17 09:17:26;;;;;;;19.47;8.33;;;;;;;;;;772858;180;919381;-66
2023/12/17 09:19:50;;;;;;;12.00;7.30;;;;;;;;;;765549;178;916680;-67
2023/12/17 09:22:17;;;;;;;14.63;8.27;;;;;;;;;;764065;179;831862;-67
2023/12/17 09:24:42;;;;;;;12.00;7.10;;;;;;;;;;771657;179;818837;-64
2023/12/17 09:27:08;;;;;;;15.95;8.57;;;;;;;;;;761851;179;971378;-69
2023/12/17 09:29:34;;;;;;;11.60;6.47;;;;;;;;;;768699;177;922144;-68
2023/12/17 09:31:59;;;;;;;16.27;8.23;;;;;;;;;;776851;180;915093;-62
2023/12/17 09:34:25;;;;;;;13.77;7.50;;;;;;;;;;773771;180;1066118;-63
2023/12/17 09:36:51;;;;;;;14.80;7.55;;;;;;;;;;772558;179;909240;-68
2023/12/17 09:39:17;;;;;;;15.40;7.53;;;;;;;;;;776492;180;919037;-67
2023/12/17 09:41:43;;;;;;;16.35;7.50;;;;;;;;;;770545;180;920003;-62
2023/12/17 09:44:09;;;;;;;18.40;8.63;;;;;;;;;;771618;178;918671;-63
2023/12/17 09:46:35;;;;;;;13.93;8.10;;;;;;;;;;778251;178;820099;-62
2023/12/17 09:49:00;;;;;;;14.43;8.37;;;;;;;;;;774468;177;1013945;-68
2023/12/17 09:51:26;;;;;;;11.20;6.50;;;;;;;;;;775557;181;637892;-69
2023/12/17 09:53:54;;;;;;;15.80;8.57;;;;;;;;;;774414;177;865656;-68
2023/12/17 09:56:20;;;;;;;13.90;8.70;;;;;;;;;;779410;177;919204;-62
2023/12/17 09:58:46;;;;;;;12.50;8.83;;;;;;;;;;773035;180;817521;-69
2023/12/17 10:01:11;;;;;;;20.10;9.23;;;;;;;;;;772868;178;816368;-62
2023/12/17 10:03:37;;;;;;;16.83;8.50;;;;;;;;;;779537;180;816464;-68
2023/12/17 10:06:03;;;;;;;16.47;8.20;;;;;;;;;;770661;180;919878;-62
2023/12/17 10:08:29;;;;;;;19.23;8.73;;;;;;;;;;770803;180;915991;-61
2023/12/17 10:10:55;;;;;;;15.97;8.90;;;;;;;;;;778325;179;917134;-62
2023/12/17 10:13:21;;;;;;;14.37;8.00;;;;;;;;;;773732;178;918659;-70
2023/12/17 10:15:48;;;;;;;13.63;7.80;;;;;;;;;;771535;178;919307;-62
2023/12/17 10:18:12;;;;;;;14.30;8.10;;;;;;;;;;770951;179;919549;-62
2023/12/17 10:20:38;;;;;;;22.13;9.40;;;;;;;;;;771266;180;623263;-62
2023/12/17 10:23:04;;;;;;;14.80;8.93;;;;;;;;;;747487;185;792716;-62
2023/12/17 10:25:30;;;;;;;21.40;8.10;;;;;;;;;;752650;182;816260;-68
2023/12/17 10:27:57;;;;;;;16.90;9.57;;;;;;;;;;763554;183;717275;-62
2023/12/17 10:30:22;;;;;;;11.17;7.73;;;;;;;;;;763135;181;811871;-62
2023/12/17 10:32:47;;;;;;;16.10;8.03;;;;;;;;;;762832;181;766355;-69
2023/12/17 10:35:13;;;;;;;11.53;7.00;;;;;;;;;;766183;181;814021;-68
2023/12/17 10:37:39;;;;;;;13.83;7.97;;;;;;;;;;764286;181;918755;-68
2023/12/17 10:40:06;;;;;;;16.30;8.37;;;;;;;;;;764594;180;918187;-61
2023/12/17 10:42:32;;;;;;;10.70;5.70;;;;;;;;;;768467;180;919100;-63
2023/12/17 10:44:57;;;;;;;17.00;8.00;;;;;;;;;;777060;180;918515;-62
2023/12/17 10:47:23;;;;;;;10.33;6.70;;;;;;;;;;769356;181;1021719;-62
2023/12/17 10:49:49;;;;;;;13.77;6.40;;;;;;;;;;777087;181;622040;-68
2023/12/17 10:52:15;;;;;;;20.60;9.53;;;;;;;;;;781015;177;633916;-62
2023/12/17 10:54:41;;;;;;;14.20;9.30;;;;;;;;;;773370;180;931814;-62
2023/12/17 10:57:09;;;;;;;19.43;8.73;;;;;;;;;;773821;178;915182;-68
2023/12/17 10:59:36;;;;;;;17.30;9.05;;;;;;;;;;779422;179;917296;-68
2023/12/17 11:02:01;;;;;;;17.20;10.07;;;;;;;;;;770656;180;917625;-62
2023/12/17 11:04:27;;;;;;;17.23;8.50;;;;;;;;;;776456;180;826684;-68
2023/12/17 11:06:53;;;;;;;20.73;8.60;;;;;;;;;;774798;180;809897;-68
2023/12/17 11:09:19;;;;;;;19.17;9.33;;;;;;;;;;774764;180;915058;-63
2023/12/17 11:11:47;;;;;;;18.85;8.23;;;;;;;;;;773319;177;810003;-68
2023/12/17 11:14:13;;;;;;;13.30;8.70;;;;;;;;;;771316;178;917326;-63
2023/12/17 11:16:39;;;;;;;19.90;8.23;;;;;;;;;;777310;178;918364;-68
2023/12/17 11:19:05;;;;;;;12.97;8.33;;;;;;;;;;771549;180;913008;-62
2023/12/17 11:21:32;;;;;;;19.70;8.20;;;;;;;;;;775901;180;919342;-63
2023/12/17 11:23:56;;;;;;;11.60;7.30;;;;;;;;;;776433;180;774575;-68
2023/12/17 11:26:22;;;;;;;14.87;7.43;;;;;;;;;;771323;180;917203;-68
2023/12/17 11:28:48;;;;;;;15.33;9.03;;;;;;;;;;770873;179;907151;-68
2023/12/17 11:31:14;;;;;;;17.87;8.53;;;;;;;;;;774685;180;925330;-64
2023/12/17 11:33:40;;;;;;;13.40;9.40;;;;;;;;;;768950;181;918918;-62
2023/12/17 11:36:06;;;;;;;25.70;9.97;;;;;;;;;;761026;181;925677;-63
2023/12/17 11:38:32;;;;;;;14.03;9.97;;;;;;;;;;768841;180;918439;-63
2023/12/17 11:40:58;;;;;;;18.93;8.77;;;;;;;;;;773777;178;897243;-62
2023/12/17 11:43:25;;;;;;;11.90;6.73;;;;;;;;;;761572;181;842360;-69
2023/12/17 11:45:50;;;;;;;14.73;7.70;;;;;;;;;;772104;180;816912;-69
2023/12/17 11:48:16;;;;;;;11.40;7.90;;;;;;;;;;776163;180;923904;-62
2023/12/17 11:50:41;;;;;;;19.50;8.10;;;;;;;;;;769681;178;919180;-63
2023/12/17 11:53:07;;;;;;;13.85;8.57;;;;;;;;;;772144;181;915325;-62
2023/12/17 11:55:39;;;;;;;16.90;9.00;;;;;;;;;;777117;180;919725;-62
2023/12/17 11:58:05;;;;;;;11.00;7.40;;;;;;;;;;772273;177;896530;-68
2023/12/17 12:00:31;;;;;;;23.50;9.23;;;;;;;;;;773914;179;800896;-70
2023/12/17 12:02:57;;;;;;;12.97;8.23;;;;;;;;;;770293;180;942198;-69
2023/12/17 12:05:23;;;;;;;12.32;8.23;;;;;;;;;;774748;180;919133;-69
2023/12/17 12:07:49;;;;;;;13.83;8.10;;;;;;;;;;774371;180;919201;-62
2023/12/17 12:10:14;;;;;;;13.63;8.10;;;;;;;;;;775842;177;920712;-70
2023/12/17 12:12:40;;;;;;;17.43;8.60;;;;;;;;;;777167;180;919210;-64
2023/12/17 12:15:06;;;;;;;16.37;9.03;;;;;;;;;;774788;177;840311;-64
2023/12/17 12:17:38;;;;;;;16.33;8.67;;;;;;;;;;770447;179;919588;-62
2023/12/17 12:20:03;;;;;;;11.53;7.60;;;;;;;;;;773030;180;816336;-63
2023/12/17 12:22:28;;;;;;;20.60;9.80;;;;;;;;;;779187;178;920925;-69
2023/12/17 12:24:54;;;;;;;15.40;8.70;;;;;;;;;;774386;180;923053;-63
2023/12/17 12:27:20;;;;;;;14.60;7.67;;;;;;;;;;770503;177;971582;-69
2023/12/17 12:29:48;;;;;;;12.40;7.90;;;;;;;;;;767655;181;817109;-62
2023/12/17 12:32:14;;;;;;;10.20;5.53;;;;;;;;;;772987;179;917755;-69
2023/12/17 12:34:44;;;;;;;15.27;6.90;;;;;;;;;;776493;176;919124;-63
2023/12/17 12:37:04;;;;;;;13.13;8.20;;;;;;;;;;772047;180;910445;-68
2023/12/17 12:39:30;;;;;;;13.93;6.77;;;;;;;;;;775336;180;862444;-68
2023/12/17 12:41:55;;;;;;;15.87;8.43;;;;;;;;;;772966;178;907984;-63
2023/12/17 12:44:21;;;;;;;12.43;8.10;;;;;;;;;;773636;178;912478;-69
2023/12/17 12:46:47;;;;;;;13.93;7.77;;;;;;;;;;777001;180;830186;-64
2023/12/17 12:49:13;;;;;;;14.17;7.77;;;;;;;;;;773401;180;816788;-62
2023/12/17 12:51:39;;;;;;;10.30;5.87;;;;;;;;;;773733;178;911221;-63
2023/12/17 12:54:06;;;;;;;10.60;7.30;;;;;;;;;;776001;178;913453;-76
2023/12/17 12:56:30;;;;;;;12.33;7.80;;;;;;;;;;769793;180;916270;-63
2023/12/17 12:58:56;;;;;;;12.47;7.13;;;;;;;;;;773623;180;919743;-69
2023/12/17 13:01:22;;;;;;;11.30;6.80;;;;;;;;;;777700;180;922238;-68
2023/12/17 13:03:48;;;;;;;13.63;8.13;;;;;;;;;;772036;179;816199;-64
2023/12/17 13:06:15;;;;;;;12.70;7.93;;;;;;;;;;762213;178;920010;-68
2023/12/17 13:08:40;;;;;;;16.33;7.17;;;;;;;;;;771074;180;847044;-68
2023/12/17 13:11:05;;;;;;;16.58;8.48;;;;;;;;;;775217;180;914723;-69
2023/12/17 13:13:31;;;;;;;12.83;8.63;;;;;;;;;;772794;178;922053;-62
2023/12/17 13:15:57;;;;;;;17.13;8.73;;;;;;;;;;772560;178;885571;-68
2023/12/17 13:18:23;;;;;;;11.23;7.57;;;;;;;;;;776449;180;921211;-62
2023/12/17 13:20:51;;;;;;;13.80;8.07;;;;;;;;;;769678;178;920543;-61
2023/12/17 13:23:15;;;;;;;18.17;9.23;;;;;;;;;;774636;179;920569;-62
2023/12/17 13:25:40;;;;;;;12.87;8.70;;;;;;;;;;778300;180;916293;-68
2023/12/17 13:28:06;;;;;;;16.87;9.60;;;;;;;;;;776355;180;848364;-68
2023/12/17 13:30:32;;;;;;;17.73;9.60;;;;;;;;;;774137;179;819539;-69
2023/12/17 13:33:02;;;;;;;13.97;8.80;;;;;;;;;;771767;180;919701;-68
2023/12/17 13:35:24;;;;;;;20.63;9.20;;;;;;;;;;771174;181;875099;-63
2023/12/17 13:37:50;;;;;;;15.20;8.63;;;;;;;;;;775066;178;918046;-68
2023/12/17 13:40:16;;;;;;;21.00;9.50;;;;;;;;;;774610;180;816220;-62
2023/12/17 13:42:41;;;;;;;15.40;8.40;;;;;;;;;;775841;180;927094;-68
2023/12/17 13:45:08;;;;;;;15.70;9.70;;;;;;;;;;771784;180;966527;-69
2023/12/17 13:47:33;;;;;;;14.50;8.70;;;;;;;;;;767021;180;918427;-63
2023/12/17 13:49:59;;;;;;;22.10;10.40;;;;;;;;;;778245;180;869548;-69
2023/12/17 13:52:25;;;;;;;15.00;8.60;;;;;;;;;;771932;179;916171;-63
2023/12/17 13:54:51;;;;;;;17.27;10.97;;;;;;;;;;770846;180;920181;-62
2023/12/17 13:57:18;;;;;;;19.27;8.80;;;;;;;;;;778055;178;921384;-69
2023/12/17 13:59:43;;;;;;;19.20;10.83;;;;;;;;;;770533;178;895539;-69
2023/12/17 14:02:08;;;;;;;19.23;9.43;;;;;;;;;;769136;180;919931;-70
2023/12/17 14:04:34;;;;;;;14.30;9.00;;;;;;;;;;772464;180;922271;-62